Time;durP1;ratioP1;P1;durP2;ratioP2;P2;SDS_P1;SDS_P2;PMS_P1;PMS_P2;Temp;Humidity;BMP_temperature;BMP_pressure;BME280_temperature;BME280_humidity;BME280_pressure;Samples;Min_cycle;Max_cycle;Signal;HPM_P1;HPM_P2
2023/08/11 00:01:06;;;;;;;5.83;2.10;;;16.00;99.90;;;16.92;100.00;98654.53;5022001;28;20967;-81
2023/08/11 00:03:43;;;;;;;5.67;2.20;;;16.00;99.90;;;16.89;100.00;98649.69;5022709;28;20457;-81
2023/08/11 00:06:13;;;;;;;7.37;2.47;;;15.90;99.90;;;16.86;100.00;98652.75;5021140;28;20458;-82
2023/08/11 00:08:43;;;;;;;2.63;2.10;;;15.90;99.90;;;16.85;100.00;98646.66;5021734;28;20486;-81
2023/08/11 00:11:13;;;;;;;5.33;1.67;;;15.80;99.90;;;16.84;100.00;98652.13;5024055;28;20462;-81
2023/08/11 00:13:43;;;;;;;5.80;2.30;;;15.90;99.90;;;16.75;100.00;98648.94;5022310;28;20825;-82
2023/08/11 00:16:12;;;;;;;2.53;1.80;;;15.90;99.90;;;16.71;100.00;98649.56;5023141;28;20474;-82
2023/08/11 00:18:43;;;;;;;7.20;1.90;;;15.90;99.90;;;16.67;100.00;98643.09;5019276;28;20462;-82
2023/08/11 00:21:13;;;;;;;4.00;2.00;;;15.90;99.90;;;16.67;100.00;98645.72;5021113;28;20517;-81
2023/08/11 00:23:43;;;;;;;3.73;1.80;;;15.80;99.90;;;16.62;100.00;98640.28;5022631;28;20459;-81
2023/08/11 00:26:14;;;;;;;2.40;1.90;;;15.70;99.90;;;16.56;100.00;98641.91;5018150;28;20527;-81
2023/08/11 00:28:46;;;;;;;4.90;1.60;;;15.70;99.90;;;16.42;100.00;98641.13;5021151;28;20499;-82
2023/08/11 00:31:15;;;;;;;6.57;2.40;;;15.70;99.90;;;16.38;100.00;98639.16;5022366;28;20453;-82
2023/08/11 00:33:51;;;;;;;4.47;2.10;;;15.70;99.90;;;16.39;100.00;98638.09;5021459;28;20965;-82
2023/08/11 00:36:20;;;;;;;6.97;2.20;;;15.60;99.90;;;16.36;100.00;98636.69;5020514;28;21115;-81
2023/08/11 00:38:51;;;;;;;9.47;2.10;;;15.50;99.90;;;16.28;100.00;98636.13;5021274;28;20474;-82
2023/08/11 00:41:22;;;;;;;5.83;2.30;;;15.40;99.90;;;16.18;100.00;98635.75;5021253;28;20489;-81
2023/08/11 00:43:52;;;;;;;7.50;2.00;;;15.40;99.90;;;16.23;100.00;98633.31;5022260;28;20474;-82
2023/08/11 00:46:25;;;;;;;3.37;2.10;;;15.30;99.90;;;16.21;100.00;98630.84;5021008;28;21179;-81
2023/08/11 00:48:56;;;;;;;3.73;2.50;;;15.40;99.90;;;16.26;100.00;98633.69;5021331;28;20539;-82
2023/08/11 00:51:27;;;;;;;4.00;1.90;;;15.30;99.90;;;16.24;100.00;98637.56;5018870;28;20467;-82
2023/08/11 00:53:59;;;;;;;9.30;2.77;;;15.30;99.90;;;16.21;100.00;98624.78;5020260;28;20497;-81
2023/08/11 00:56:30;;;;;;;4.20;2.27;;;15.30;99.90;;;16.16;100.00;98635.97;5019929;28;20454;-82
2023/08/11 00:59:02;;;;;;;4.73;1.80;;;15.30;99.90;;;16.14;100.00;98629.28;5021004;28;20466;-81
2023/08/11 01:01:32;;;;;;;9.83;2.30;;;15.30;99.90;;;16.13;100.00;98630.28;5021693;28;20459;-81
2023/08/11 01:04:07;;;;;;;5.90;2.40;;;15.30;99.90;;;16.11;100.00;98638.41;5024104;28;20476;-82
2023/08/11 01:06:46;;;;;;;2.77;1.80;;;15.30;99.90;;;16.11;100.00;98626.03;5022490;28;20465;-82
2023/08/11 01:09:35;;;;;;;4.23;2.10;;;15.20;99.90;;;16.03;100.00;98626.28;5021630;28;20998;-82
2023/08/11 01:12:25;;;;;;;2.73;2.20;;;15.20;99.90;;;15.92;100.00;98632.19;5020957;28;20458;-81
2023/08/11 01:15:11;;;;;;;2.50;1.83;;;15.20;99.90;;;15.88;100.00;98630.97;5022892;28;20548;-82
2023/08/11 01:17:42;;;;;;;5.60;2.00;;;15.20;99.90;;;15.88;100.00;98635.44;5020660;28;20455;-81
2023/08/11 01:20:16;;;;;;;2.97;2.20;;;15.20;99.90;;;15.97;100.00;98639.44;5021963;28;20983;-81
2023/08/11 01:22:51;;;;;;;7.57;2.80;;;15.00;99.90;;;15.96;100.00;98637.84;5021902;28;20472;-81
2023/08/11 01:25:25;;;;;;;4.80;2.43;;;15.10;99.90;;;16.03;100.00;98638.66;5022533;28;20461;-81
2023/08/11 01:27:56;;;;;;;2.70;2.07;;;15.10;99.90;;;15.99;100.00;98645.34;5022115;28;20493;-81
2023/08/11 01:30:27;;;;;;;3.30;2.43;;;15.00;99.90;;;15.92;100.00;98647.19;5023830;28;20493;-81
2023/08/11 01:32:57;;;;;;;4.93;2.13;;;15.00;99.90;;;15.85;100.00;98641.94;5020303;28;20490;-81
2023/08/11 01:35:28;;;;;;;12.80;2.40;;;15.00;99.90;;;15.79;100.00;98642.72;5022481;28;20481;-83
2023/08/11 01:38:10;;;;;;;2.13;1.60;;;14.90;99.90;;;15.74;100.00;98632.00;5022641;28;20573;-80
2023/08/11 01:40:41;;;;;;;6.40;1.90;;;15.00;99.90;;;15.75;100.00;98630.19;5022773;28;20551;-81
2023/08/11 01:43:14;;;;;;;3.53;1.77;;;15.00;99.90;;;15.82;100.00;98630.97;5020857;28;21004;-81
2023/08/11 01:45:44;;;;;;;10.03;2.00;;;15.00;99.90;;;15.76;100.00;98626.53;5019219;28;20596;-81
2023/08/11 01:48:17;;;;;;;7.10;2.20;;;14.90;99.90;;;15.77;100.00;98623.69;5021650;28;20465;-81
2023/08/11 01:50:47;;;;;;;2.60;1.73;;;14.80;99.90;;;15.68;100.00;98632.03;5022175;28;20881;-82
2023/08/11 01:53:16;;;;;;;3.10;2.07;;;14.70;99.90;;;15.62;100.00;98627.56;5020996;28;20467;-81
2023/08/11 01:55:51;;;;;;;5.73;2.30;;;14.70;99.90;;;15.61;100.00;98624.13;5021509;28;20821;-82
2023/08/11 01:58:20;;;;;;;4.53;2.77;;;14.70;99.90;;;15.59;100.00;98620.84;5021055;28;20457;-81
2023/08/11 02:00:51;;;;;;;5.17;2.13;;;14.80;99.90;;;15.65;100.00;98616.59;5018174;28;20465;-81
2023/08/11 02:03:20;;;;;;;3.33;2.20;;;14.70;99.90;;;15.62;100.00;98619.66;5018811;28;20474;-82
2023/08/11 02:05:50;;;;;;;8.40;1.87;;;14.60;99.90;;;15.56;100.00;98616.00;5022626;28;20462;-81
2023/08/11 02:08:21;;;;;;;4.37;2.60;;;14.50;99.90;;;15.55;100.00;98612.53;5021805;28;20542;-81
2023/08/11 02:10:52;;;;;;;8.80;2.57;;;14.60;99.90;;;15.50;100.00;98612.38;5022314;28;20487;-81
2023/08/11 02:13:23;;;;;;;6.30;2.00;;;14.60;99.90;;;15.45;100.00;98617.38;5022092;28;20822;-82
2023/08/11 02:15:52;;;;;;;7.70;2.37;;;14.60;99.90;;;15.55;100.00;98617.00;5021236;28;20478;-82
2023/08/11 02:18:22;;;;;;;5.33;2.50;;;14.60;99.90;;;15.58;100.00;98625.31;5021823;28;20462;-81
2023/08/11 02:20:52;;;;;;;3.00;1.90;;;14.60;99.90;;;15.50;100.00;98622.09;5020710;28;20462;-81
2023/08/11 02:23:21;;;;;;;4.30;1.97;;;14.50;99.90;;;15.45;100.00;98625.31;5020925;28;20466;-81
2023/08/11 02:25:53;;;;;;;3.60;1.90;;;14.60;99.90;;;15.46;100.00;98619.03;5021356;28;20508;-81
2023/08/11 02:28:23;;;;;;;9.50;2.10;;;14.60;99.90;;;15.46;100.00;98624.28;5022072;28;20493;-81
2023/08/11 02:30:52;;;;;;;4.10;2.73;;;14.50;99.90;;;15.43;100.00;98622.06;5022332;28;20486;-81
2023/08/11 02:33:22;;;;;;;5.87;2.00;;;14.40;99.90;;;15.39;100.00;98620.84;5019335;28;20461;-81
2023/08/11 02:35:51;;;;;;;3.77;1.90;;;14.40;99.90;;;15.36;100.00;98616.00;5022096;28;20518;-81
2023/08/11 02:38:21;;;;;;;3.00;2.23;;;14.50;99.90;;;15.38;100.00;98621.84;5021795;28;20475;-81
2023/08/11 02:40:52;;;;;;;4.13;2.23;;;14.40;99.90;;;15.25;100.00;98623.69;5020075;28;20830;-83
2023/08/11 02:43:23;;;;;;;3.50;2.17;;;14.40;99.90;;;15.24;100.00;98622.88;5020288;28;20835;-83
2023/08/11 02:45:52;;;;;;;4.90;2.47;;;14.40;99.90;;;15.28;100.00;98620.63;5022080;28;20491;-82
2023/08/11 02:48:23;;;;;;;4.10;2.20;;;14.30;99.90;;;15.29;100.00;98619.63;5019731;28;20559;-81
2023/08/11 02:50:53;;;;;;;8.83;2.43;;;14.30;99.90;;;15.27;100.00;98617.19;5022373;28;21083;-81
2023/08/11 02:53:23;;;;;;;2.43;1.93;;;14.40;99.90;;;15.28;100.00;98618.81;5020206;28;20466;-82
2023/08/11 02:55:54;;;;;;;3.40;2.13;;;14.30;99.90;;;15.18;100.00;98615.78;5019150;28;21020;-84
2023/08/11 02:58:23;;;;;;;4.13;2.50;;;14.30;99.90;;;15.11;100.00;98623.69;5018558;28;20466;-81
2023/08/11 03:00:53;;;;;;;8.17;2.30;;;14.20;99.90;;;15.18;100.00;98614.97;5019842;28;20463;-81
2023/08/11 03:03:23;;;;;;;4.63;2.23;;;14.20;99.90;;;15.21;100.00;98617.19;5020812;28;20458;-80
2023/08/11 03:05:55;;;;;;;2.47;1.97;;;14.20;99.90;;;15.20;100.00;98616.41;5018343;28;20474;-81
2023/08/11 03:08:25;;;;;;;3.00;1.80;;;14.30;99.90;;;15.24;100.00;98622.88;5021119;28;20466;-81
2023/08/11 03:11:01;;;;;;;2.50;1.90;;;14.20;99.90;;;15.19;100.00;98625.31;5017927;28;21041;-81
2023/08/11 03:13:32;;;;;;;3.27;2.00;;;14.20;99.90;;;15.16;100.00;98624.91;5017544;28;20474;-83
2023/08/11 03:16:02;;;;;;;8.43;4.90;;;14.20;99.90;;;15.16;100.00;98623.09;5018211;28;20488;-81
2023/08/11 03:18:31;;;;;;;9.67;2.27;;;14.20;99.90;;;15.08;100.00;98624.09;5017987;28;21011;-80
2023/08/11 03:21:01;;;;;;;5.50;2.10;;;14.10;99.90;;;15.07;100.00;98621.63;5016037;28;20477;-81
2023/08/11 03:23:46;;;;;;;4.43;2.27;;;14.20;99.90;;;15.02;100.00;98613.53;5016546;28;20463;-81
2023/08/11 03:26:16;;;;;;;3.50;2.40;;;14.20;99.90;;;15.00;100.00;98619.00;5016772;28;20489;-82
2023/08/11 03:28:44;;;;;;;7.00;2.43;;;14.10;99.90;;;14.97;100.00;98618.59;5021612;28;20462;-81
2023/08/11 03:31:13;;;;;;;4.87;2.67;;;14.00;99.90;;;14.90;100.00;98626.47;5019643;28;20976;-82
2023/08/11 03:33:41;;;;;;;4.63;2.03;;;13.90;99.90;;;14.94;100.00;98626.91;5023517;28;20463;-82
2023/08/11 03:36:13;;;;;;;2.80;2.00;;;14.00;99.90;;;14.92;100.00;98621.03;5022457;28;20482;-82
2023/08/11 03:38:43;;;;;;;6.03;2.27;;;14.00;99.90;;;14.91;100.00;98624.66;5022171;28;20462;-83
2023/08/11 03:41:14;;;;;;;3.00;2.30;;;14.00;99.90;;;14.86;100.00;98624.44;5023666;28;20469;-81
2023/08/11 03:43:45;;;;;;;4.90;2.10;;;13.90;99.90;;;14.89;100.00;98621.44;5021988;28;20462;-82
2023/08/11 03:46:15;;;;;;;4.23;1.90;;;13.90;99.90;;;14.88;100.00;98633.78;5021416;28;20911;-81
2023/08/11 03:48:45;;;;;;;4.30;2.50;;;13.90;99.90;;;14.82;100.00;98631.94;5020533;28;21404;-82
2023/08/11 03:51:15;;;;;;;2.10;1.83;;;13.90;99.90;;;14.84;100.00;98627.28;5018947;28;20497;-81
2023/08/11 03:53:46;;;;;;;5.17;2.00;;;13.90;99.90;;;14.85;100.00;98634.19;5021760;28;20458;-81
2023/08/11 03:56:18;;;;;;;2.53;2.17;;;13.90;99.90;;;14.92;100.00;98640.28;5022584;28;20474;-81
2023/08/11 03:58:49;;;;;;;3.40;2.20;;;13.90;99.90;;;14.88;100.00;98638.25;5022665;28;20956;-81
2023/08/11 04:01:19;;;;;;;4.83;1.87;;;13.90;99.90;;;14.86;100.00;98635.78;5022958;28;20511;-82
2023/08/11 04:03:48;;;;;;;2.40;2.20;;;13.90;99.90;;;14.86;100.00;98634.97;5022516;28;21194;-81
2023/08/11 04:06:18;;;;;;;10.30;2.30;;;13.80;99.90;;;14.83;100.00;98648.53;5023431;28;20472;-81
2023/08/11 04:08:48;;;;;;;6.53;2.30;;;13.80;99.90;;;14.81;100.00;98634.78;5023888;28;20472;-81
2023/08/11 04:11:18;;;;;;;4.67;2.23;;;13.80;99.90;;;14.78;100.00;98632.53;5022086;28;20493;-81
2023/08/11 04:13:49;;;;;;;2.50;1.90;;;13.70;99.90;;;14.77;100.00;98641.44;5020426;28;20465;-79
2023/08/11 04:16:18;;;;;;;5.27;2.40;;;13.70;99.90;;;14.79;100.00;98634.16;5021371;28;20466;-81
2023/08/11 04:18:48;;;;;;;3.40;2.20;;;13.80;99.90;;;14.84;100.00;98642.28;5021974;28;20558;-81
2023/08/11 04:21:18;;;;;;;5.73;2.37;;;13.80;99.90;;;14.83;100.00;98636.19;5019737;28;20474;-82
2023/08/11 04:23:48;;;;;;;3.97;2.53;;;13.80;99.90;;;14.79;100.00;98639.41;5018881;28;20893;-85
2023/08/11 04:26:19;;;;;;;4.73;2.37;;;13.80;99.90;;;14.75;100.00;98646.13;5021014;28;20993;-83
2023/08/11 04:28:50;;;;;;;3.50;1.90;;;13.70;99.90;;;14.77;100.00;98642.25;5020126;28;20463;-85
2023/08/11 04:31:19;;;;;;;5.20;2.60;;;13.70;99.90;;;14.80;100.00;98635.78;5018375;28;20528;-80
2023/08/11 04:33:50;;;;;;;6.47;2.30;;;13.70;99.90;;;14.81;100.00;98638.22;5019045;28;20560;-81
2023/08/11 04:36:19;;;;;;;6.67;2.40;;;13.70;99.90;;;14.80;100.00;98635.78;5020594;28;20467;-80
2023/08/11 04:38:49;;;;;;;3.20;1.97;;;13.60;99.90;;;14.73;100.00;98634.94;5021066;28;20537;-82
2023/08/11 04:41:20;;;;;;;6.47;2.33;;;13.70;99.90;;;14.73;100.00;98634.94;5020168;28;20523;-81
2023/08/11 04:43:50;;;;;;;10.63;2.10;;;13.60;99.90;;;14.70;100.00;98637.97;5021543;28;21000;-82
2023/08/11 04:46:21;;;;;;;11.03;2.70;;;13.70;99.90;;;14.69;100.00;98634.53;5024394;28;20469;-83
2023/08/11 04:48:50;;;;;;;3.07;2.27;;;13.70;99.90;;;14.69;100.00;98629.28;5025865;28;20947;-83
2023/08/11 04:51:21;;;;;;;4.73;2.90;;;13.60;99.90;;;14.69;100.00;98633.72;5025091;28;20491;-84
2023/08/11 04:53:52;;;;;;;3.30;2.00;;;13.60;99.90;;;14.65;100.00;98635.16;5024796;28;20465;-83
2023/08/11 04:56:23;;;;;;;3.23;2.30;;;13.50;99.90;;;14.59;100.00;98628.84;5027014;28;20466;-83
2023/08/11 04:58:55;;;;;;;4.47;2.87;;;13.50;99.90;;;14.60;100.00;98631.28;5024010;28;21054;-83
2023/08/11 05:01:25;;;;;;;3.40;2.50;;;13.60;99.90;;;14.58;100.00;98633.28;5025097;28;21055;-84
2023/08/11 05:03:55;;;;;;;5.47;2.50;;;13.50;99.90;;;14.61;100.00;98630.25;5024924;28;20467;-85
2023/08/11 05:06:25;;;;;;;8.80;2.37;;;13.50;99.90;;;14.68;100.00;98632.13;5025652;28;20454;-83
2023/08/11 05:08:54;;;;;;;5.23;3.03;;;13.50;99.90;;;14.72;100.00;98638.59;5024520;28;20522;-85
2023/08/11 05:11:27;;;;;;;2.80;2.20;;;13.70;99.90;;;14.71;100.00;98636.97;5024792;28;20485;-83
2023/08/11 05:13:58;;;;;;;3.53;2.63;;;13.60;99.90;;;14.70;100.00;98636.16;5022411;28;20975;-83
2023/08/11 05:16:28;;;;;;;6.43;2.77;;;13.60;99.90;;;14.73;100.00;98642.84;5024563;28;20608;-85
2023/08/11 05:18:59;;;;;;;5.60;2.30;;;13.60;99.90;;;14.76;100.00;98640.63;5024380;28;20467;-83
2023/08/11 05:21:29;;;;;;;8.53;2.80;;;13.70;99.90;;;14.76;100.00;98645.91;5022224;28;20497;-83
2023/08/11 05:23:59;;;;;;;3.53;2.20;;;13.70;99.90;;;14.78;100.00;98640.44;5023692;28;20458;-83
2023/08/11 05:26:30;;;;;;;3.20;2.20;;;13.70;99.90;;;14.86;100.00;98637.59;5022668;28;20496;-83
2023/08/11 05:29:01;;;;;;;2.40;2.20;;;13.80;99.90;;;14.88;100.00;98649.59;5023312;28;20557;-85
2023/08/11 05:31:32;;;;;;;4.50;2.47;;;13.90;99.90;;;14.91;100.00;98643.91;5023409;28;20482;-84
2023/08/11 05:34:03;;;;;;;2.63;2.20;;;13.90;99.90;;;14.97;100.00;98639.66;5023441;28;21044;-83
2023/08/11 05:36:33;;;;;;;4.53;2.47;;;13.90;99.90;;;14.96;100.00;98645.97;5037040;28;20473;-84
2023/08/11 05:39:02;;;;;;;5.17;2.97;;;13.90;99.90;;;15.00;100.00;98639.25;5023585;28;20463;-82
2023/08/11 05:41:32;;;;;;;3.60;2.37;;;13.90;99.90;;;14.98;100.00;98636.84;5024897;28;20471;-83
2023/08/11 05:44:01;;;;;;;3.33;2.40;;;13.90;99.90;;;14.98;100.00;98647.38;5022365;28;20563;-84
2023/08/11 05:46:31;;;;;;;5.03;3.00;;;13.90;99.90;;;15.02;100.00;98655.69;5022436;28;20462;-82
2023/08/11 05:49:00;;;;;;;4.90;2.33;;;13.90;99.90;;;15.05;100.00;98652.66;5025519;28;20489;-83
2023/08/11 05:51:31;;;;;;;5.33;2.70;;;14.00;99.90;;;15.06;100.00;98646.38;5023018;28;20512;-83
2023/08/11 05:54:01;;;;;;;7.80;2.70;;;14.00;99.90;;;15.07;100.00;98651.44;5023053;28;20504;-84
2023/08/11 05:56:33;;;;;;;3.63;2.30;;;14.10;99.90;;;15.15;100.00;98647.78;5024574;28;21078;-83
2023/08/11 05:59:04;;;;;;;9.40;3.10;;;14.10;99.90;;;15.20;100.00;98648.03;5025034;28;20466;-83
2023/08/11 06:01:34;;;;;;;4.00;2.77;;;14.20;99.90;;;15.24;100.00;98643.94;5023483;28;22787;-84
2023/08/11 06:04:05;;;;;;;3.40;2.33;;;14.30;99.90;;;15.30;100.00;98656.34;5023746;28;20964;-84
2023/08/11 06:06:36;;;;;;;2.70;2.50;;;14.30;99.90;;;15.35;100.00;98651.25;5022754;28;20486;-83
2023/08/11 06:09:05;;;;;;;2.77;2.17;;;14.40;99.90;;;15.41;100.00;98649.66;5026361;28;20840;-83
2023/08/11 06:11:36;;;;;;;7.50;3.03;;;14.40;99.90;;;15.46;100.00;98652.47;5024032;28;20489;-83
2023/08/11 06:14:05;;;;;;;3.67;2.20;;;14.50;99.90;;;15.50;100.00;98644.00;5022251;28;20457;-83
2023/08/11 06:16:34;;;;;;;5.00;2.90;;;14.50;99.90;;;15.54;100.00;98653.13;5022214;28;20488;-83
2023/08/11 06:19:03;;;;;;;4.00;2.50;;;14.50;99.90;;;15.58;100.00;98654.31;5022227;28;20474;-83
2023/08/11 06:21:32;;;;;;;3.33;2.40;;;14.60;99.90;;;15.60;100.00;98654.94;5022104;28;20519;-83
2023/08/11 06:24:01;;;;;;;3.63;2.30;;;14.60;99.90;;;15.63;100.00;98653.72;5024167;28;20557;-84
2023/08/11 06:26:30;;;;;;;3.10;2.30;;;14.60;99.90;;;15.65;100.00;98656.16;5023230;28;20568;-83
2023/08/11 06:29:00;;;;;;;5.47;2.83;;;14.70;99.90;;;15.70;100.00;98651.06;5023542;28;20557;-84
2023/08/11 06:31:30;;;;;;;4.27;2.80;;;14.80;99.90;;;15.74;100.00;98650.47;5021050;28;20554;-83
2023/08/11 06:33:58;;;;;;;3.33;2.50;;;14.80;99.90;;;15.77;100.00;98652.69;5023371;28;20512;-83
2023/08/11 06:36:27;;;;;;;6.87;3.00;;;14.80;99.90;;;15.82;100.00;98652.09;5020756;28;20500;-84
2023/08/11 06:38:56;;;;;;;5.77;2.53;;;14.80;99.90;;;15.87;100.00;98646.97;5022131;28;20651;-83
2023/08/11 06:41:25;;;;;;;5.27;2.70;;;14.90;99.90;;;15.92;100.00;98652.47;5022913;28;20469;-84
2023/08/11 06:43:56;;;;;;;4.73;2.97;;;14.90;99.90;;;15.96;100.00;98638.66;5025048;28;20468;-85
2023/08/11 06:46:26;;;;;;;5.33;2.57;;;15.00;99.90;;;16.03;100.00;98646.56;5021813;28;20465;-83
2023/08/11 06:48:56;;;;;;;3.10;2.40;;;15.10;99.90;;;16.08;100.00;98641.47;5022579;28;20802;-83
2023/08/11 06:51:25;;;;;;;5.87;2.73;;;15.20;99.90;;;16.12;100.00;98640.03;5024308;28;20458;-83
2023/08/11 06:53:54;;;;;;;4.47;2.70;;;15.20;99.90;;;16.17;100.00;98637.59;5023626;28;21128;-83
2023/08/11 06:56:24;;;;;;;4.73;2.33;;;15.20;99.90;;;16.21;100.00;98640.63;5023550;28;20943;-83
2023/08/11 06:58:55;;;;;;;10.90;2.90;;;15.30;99.90;;;16.26;100.00;98638.16;5024788;28;20458;-83
2023/08/11 07:01:27;;;;;;;4.13;3.00;;;15.30;99.90;;;16.33;100.00;98638.94;5023723;28;20462;-82
2023/08/11 07:03:58;;;;;;;5.10;2.13;;;15.40;99.90;;;16.38;100.00;98641.78;5024300;28;20465;-83
2023/08/11 07:06:30;;;;;;;4.60;2.50;;;15.50;99.90;;;16.44;100.00;98635.66;5023486;28;20458;-83
2023/08/11 07:08:59;;;;;;;5.93;2.53;;;15.40;99.90;;;16.48;100.00;98629.75;5023098;28;20462;-83
2023/08/11 07:11:30;;;;;;;7.57;2.83;;;15.60;99.90;;;16.54;100.00;98636.84;5021050;28;20470;-85
2023/08/11 07:14:01;;;;;;;3.23;2.47;;;15.50;99.90;;;16.59;100.00;98633.59;5022786;28;20501;-83
2023/08/11 07:16:33;;;;;;;4.23;3.10;;;15.70;99.90;;;16.67;100.00;98630.69;5021523;28;20470;-83
2023/08/11 07:19:04;;;;;;;3.50;2.60;;;15.80;99.90;;;16.72;100.00;98632.72;5021323;28;20465;-84
2023/08/11 07:21:34;;;;;;;5.33;2.00;;;15.80;99.90;;;16.77;100.00;98641.63;5022130;28;20470;-83
2023/08/11 07:24:05;;;;;;;4.10;2.60;;;15.90;99.90;;;16.84;100.00;98633.66;5022307;28;20984;-83
2023/08/11 07:26:35;;;;;;;9.93;3.27;;;15.90;99.90;;;16.89;100.00;98634.66;5021871;28;20485;-83
2023/08/11 07:29:05;;;;;;;3.60;2.57;;;16.00;99.90;;;16.96;100.00;98630.13;5021583;28;20458;-84
2023/08/11 07:31:36;;;;;;;4.20;2.17;;;16.10;99.90;;;17.02;100.00;98628.47;5021794;28;20600;-83
2023/08/11 07:34:06;;;;;;;7.07;2.57;;;16.20;99.90;;;17.10;100.00;98630.84;5020137;28;20501;-83
2023/08/11 07:36:36;;;;;;;9.00;3.10;;;16.20;99.90;;;17.17;100.00;98638.72;5022078;28;20469;-83
2023/08/11 07:39:07;;;;;;;3.47;2.30;;;16.30;99.90;;;17.23;100.00;98637.88;5019240;28;20476;-83
2023/08/11 07:41:51;;;;;;;5.53;2.70;;;16.40;99.90;;;17.31;100.00;98638.44;5020648;28;20481;-84
2023/08/11 07:44:21;;;;;;;3.43;2.40;;;16.50;99.90;;;17.37;100.00;98637.56;5020339;28;20470;-83
2023/08/11 07:46:52;;;;;;;4.07;2.50;;;16.50;99.90;;;17.45;100.00;98645.22;5021090;28;20495;-84
2023/08/11 07:49:20;;;;;;;3.90;2.63;;;16.60;99.90;;;17.51;100.00;98627.69;5022463;28;20468;-84
2023/08/11 07:51:50;;;;;;;11.30;2.60;;;16.70;99.90;;;17.57;100.00;98635.59;5021263;28;20470;-84
2023/08/11 07:54:20;;;;;;;7.50;2.93;;;16.80;99.90;;;17.65;100.00;98636.34;5022140;28;20497;-84
2023/08/11 07:56:49;;;;;;;5.90;2.70;;;16.80;99.90;;;17.72;100.00;98639.72;5022289;28;20941;-83
2023/08/11 07:59:20;;;;;;;3.70;2.40;;;16.90;99.90;;;17.77;100.00;98642.53;5022317;28;20932;-84
2023/08/11 08:01:53;;;;;;;7.63;2.60;;;17.00;99.90;;;17.82;100.00;98632.91;5022082;28;20633;-84
2023/08/11 08:04:23;;;;;;;4.87;3.07;;;17.00;99.90;;;17.88;100.00;98633.84;5019807;28;20462;-84
2023/08/11 08:06:53;;;;;;;4.53;2.77;;;17.10;99.90;;;17.93;100.00;98637.50;5023445;28;20506;-84
2023/08/11 08:09:24;;;;;;;3.93;2.80;;;17.20;99.90;;;17.99;100.00;98638.44;5020855;28;20453;-84
2023/08/11 08:11:55;;;;;;;11.43;2.67;;;17.30;99.90;;;18.06;100.00;98637.34;5024969;28;20462;-85
2023/08/11 08:14:25;;;;;;;3.90;2.63;;;17.30;99.90;;;18.14;100.00;98632.78;5023549;28;20513;-84
2023/08/11 08:16:58;;;;;;;3.80;2.37;;;17.40;99.90;;;18.22;100.00;98633.31;5020544;28;20964;-84
2023/08/11 08:19:28;;;;;;;4.33;2.83;;;17.50;99.90;;;18.30;100.00;98638.28;5024459;28;21006;-84
2023/08/11 08:21:58;;;;;;;4.10;2.40;;;17.60;99.90;;;18.39;100.00;98636.97;5024480;28;20477;-84
2023/08/11 08:24:27;;;;;;;3.93;2.30;;;17.70;99.90;;;18.48;100.00;98626.88;5025848;28;20465;-84
2023/08/11 08:26:57;;;;;;;3.23;2.40;;;17.70;99.90;;;18.58;100.00;98625.34;5025359;28;20489;-84
2023/08/11 08:29:26;;;;;;;4.00;2.23;;;17.90;99.90;;;18.67;100.00;98625.03;5024204;28;20490;-84
2023/08/11 08:31:58;;;;;;;2.87;2.37;;;18.00;99.90;;;18.74;100.00;98628.41;5024981;28;21044;-84
2023/08/11 08:34:29;;;;;;;3.20;2.17;;;18.10;99.90;;;18.82;100.00;98625.44;5024506;28;20475;-85
2023/08/11 08:36:59;;;;;;;4.00;2.97;;;18.10;99.90;;;18.88;100.00;98620.03;5025066;28;20461;-84
2023/08/11 08:39:29;;;;;;;4.23;2.60;;;18.20;99.90;;;18.98;100.00;98614.19;5026080;28;20489;-84
2023/08/11 08:42:00;;;;;;;2.83;2.17;;;18.30;99.90;;;19.06;100.00;98616.50;5026528;28;20466;-84
2023/08/11 08:44:31;;;;;;;2.80;2.13;;;18.40;99.90;;;19.12;100.00;98602.38;5024585;28;20497;-84
2023/08/11 08:47:05;;;;;;;3.90;2.30;;;18.50;99.90;;;19.21;100.00;98611.59;5024671;28;20466;-84
2023/08/11 08:49:37;;;;;;;2.90;1.97;;;18.60;99.90;;;19.29;100.00;98611.25;5026559;28;20469;-83
2023/08/11 08:52:08;;;;;;;3.40;2.23;;;18.70;99.90;;;19.43;100.00;98606.59;5025932;28;20477;-83
2023/08/11 08:54:40;;;;;;;2.20;1.90;;;18.80;99.90;;;19.54;100.00;98605.78;5026197;28;20519;-83
2023/08/11 08:57:10;;;;;;;3.93;2.73;;;18.90;99.90;;;19.69;100.00;98607.94;5027096;28;20489;-83
2023/08/11 08:59:45;;;;;;;2.90;2.03;;;19.10;99.90;;;19.74;100.00;98608.88;5024707;28;20987;-83
2023/08/11 09:02:17;;;;;;;3.20;2.47;;;19.10;99.90;;;19.84;100.00;98609.13;5022609;28;20454;-84
2023/08/11 09:04:48;;;;;;;2.67;2.03;;;19.20;99.90;;;19.94;100.00;98611.97;5025120;28;20470;-84
2023/08/11 09:07:20;;;;;;;2.33;1.80;;;19.30;99.90;;;20.17;100.00;98608.47;5024527;28;20819;-84
2023/08/11 09:09:50;;;;;;;2.70;2.27;;;19.50;99.90;;;20.31;100.00;98617.81;5022993;28;20466;-84
2023/08/11 09:12:20;;;;;;;3.47;1.97;;;19.60;99.90;;;20.36;100.00;98609.97;5026143;28;20468;-84
2023/08/11 09:14:48;;;;;;;3.40;2.17;;;19.70;99.90;;;20.42;100.00;98611.69;5025138;28;20525;-83
2023/08/11 09:17:21;;;;;;;3.80;2.20;;;19.80;99.90;;;20.45;100.00;98602.41;5024186;28;20470;-84
2023/08/11 09:19:53;;;;;;;2.30;1.60;;;19.80;99.90;;;20.51;100.00;98610.25;5024224;28;20474;-84
2023/08/11 09:22:26;;;;;;;3.27;2.03;;;19.90;99.90;;;20.62;100.00;98607.81;5022468;28;20543;-84
2023/08/11 09:24:56;;;;;;;4.83;2.50;;;20.00;99.90;;;20.82;100.00;98605.50;5022509;28;20964;-84
2023/08/11 09:27:29;;;;;;;2.60;1.90;;;20.10;99.90;;;20.89;100.00;98611.50;5026401;28;20466;-85
2023/08/11 09:30:00;;;;;;;3.60;2.10;;;20.20;99.90;;;21.04;100.00;98601.09;5024999;28;20477;-85
2023/08/11 09:32:33;;;;;;;3.30;1.93;;;20.40;99.90;;;21.08;100.00;98602.22;5023897;28;20951;-84
2023/08/11 09:35:08;;;;;;;2.53;1.90;;;20.40;99.90;;;21.12;100.00;98600.75;5022948;28;20486;-85
2023/08/11 09:37:37;;;;;;;2.70;2.00;;;20.40;99.90;;;21.21;100.00;98599.28;5023877;28;20511;-85
2023/08/11 09:40:11;;;;;;;2.77;1.97;;;20.50;99.90;;;21.25;100.00;98603.06;5023551;28;20462;-85
2023/08/11 09:42:43;;;;;;;4.90;1.90;;;20.60;99.90;;;21.34;100.00;98601.66;5023042;28;20466;-85
2023/08/11 09:45:11;;;;;;;3.17;2.17;;;20.80;99.90;;;21.48;100.00;98600.28;5023546;28;20830;-85
2023/08/11 09:47:43;;;;;;;5.17;2.23;;;20.80;99.90;;;21.56;100.00;98597.19;5022763;28;20834;-85
2023/08/11 09:50:12;;;;;;;2.80;1.93;;;20.90;99.90;;;21.64;100.00;98598.63;5024590;28;20473;-86
2023/08/11 09:52:44;;;;;;;2.97;2.20;;;20.90;99.90;;;21.71;100.00;98593.13;5023718;28;20501;-85
2023/08/11 09:55:15;;;;;;;2.43;2.10;;;21.00;99.90;;;21.74;100.00;98590.78;5022574;28;20491;-85
2023/08/11 09:57:46;;;;;;;3.30;2.17;;;21.00;99.90;;;21.86;100.00;98596.81;5024116;28;20549;-85
2023/08/11 10:00:16;;;;;;;2.70;2.00;;;21.20;99.90;;;22.03;100.00;98591.47;5023159;28;20454;-85
2023/08/11 10:03:00;;;;;;;3.77;2.30;;;21.30;99.90;;;22.10;100.00;98578.78;5024110;28;20830;-84
2023/08/11 10:05:36;;;;;;;4.83;2.20;;;21.40;99.90;;;22.12;100.00;98581.19;5024457;28;21042;-85
2023/08/11 10:08:10;;;;;;;2.70;1.93;;;21.50;99.90;;;22.15;100.00;98586.81;5025333;28;20458;-85
2023/08/11 10:10:42;;;;;;;3.27;2.03;;;21.50;99.90;;;22.16;100.00;98580.44;5025092;28;20461;-85
2023/08/11 10:13:17;;;;;;;4.83;2.17;;;21.50;99.90;;;22.23;100.00;98586.38;5023548;28;20497;-85
2023/08/11 10:15:48;;;;;;;2.90;2.00;;;21.60;99.90;;;22.26;100.00;98577.09;5023216;28;20497;-85
2023/08/11 10:18:21;;;;;;;2.30;2.10;;;21.60;99.90;;;22.28;100.00;98578.47;5023751;28;20458;-85
2023/08/11 10:20:52;;;;;;;7.80;3.40;;;21.60;99.90;;;22.28;100.00;98575.81;5021936;28;20511;-85
2023/08/11 10:23:22;;;;;;;4.70;2.53;;;21.60;99.90;;;22.32;100.00;98574.22;5022126;28;20459;-85
2023/08/11 10:25:52;;;;;;;3.10;2.30;;;21.60;99.90;;;22.39;100.00;98580.16;5022150;28;21068;-85
2023/08/11 10:28:21;;;;;;;4.47;2.20;;;21.70;99.90;;;22.44;100.00;98577.56;5021612;28;20463;-85